地図

経路データ

SID SEASON NUMBER BASIN SUBBASIN NAME ISO_TIME NATURE LAT LON WMO_WIND WMO_PRES WMO_AGENCY TRACK_TYPE DIST2LAND LANDFALL IFLAG USA_AGENCY USA_ATCF_ID USA_LAT USA_LON USA_RECORD USA_STATUS USA_WIND USA_PRES USA_SSHS USA_R34_NE USA_R34_SE USA_R34_SW USA_R34_NW USA_R50_NE USA_R50_SE USA_R50_SW USA_R50_NW USA_R64_NE USA_R64_SE USA_R64_SW USA_R64_NW USA_POCI USA_ROCI USA_RMW USA_EYE TOKYO_LAT TOKYO_LON TOKYO_GRADE TOKYO_WIND TOKYO_PRES TOKYO_R50_DIR TOKYO_R50_LONG TOKYO_R50_SHORT TOKYO_R30_DIR TOKYO_R30_LONG TOKYO_R30_SHORT TOKYO_LAND CMA_LAT CMA_LON CMA_CAT CMA_WIND CMA_PRES HKO_LAT HKO_LON HKO_CAT HKO_WIND HKO_PRES NEWDELHI_LAT NEWDELHI_LON NEWDELHI_GRADE NEWDELHI_WIND NEWDELHI_PRES NEWDELHI_CI NEWDELHI_DP NEWDELHI_POCI REUNION_LAT REUNION_LON REUNION_TYPE REUNION_WIND REUNION_PRES REUNION_TNUM REUNION_CI REUNION_RMW REUNION_R34_NE REUNION_R34_SE REUNION_R34_SW REUNION_R34_NW REUNION_R50_NE REUNION_R50_SE REUNION_R50_SW REUNION_R50_NW REUNION_R64_NE REUNION_R64_SE REUNION_R64_SW REUNION_R64_NW BOM_LAT BOM_LON BOM_TYPE BOM_WIND BOM_PRES BOM_TNUM BOM_CI BOM_RMW BOM_R34_NE BOM_R34_SE BOM_R34_SW BOM_R34_NW BOM_R50_NE BOM_R50_SE BOM_R50_SW BOM_R50_NW BOM_R64_NE BOM_R64_SE BOM_R64_SW BOM_R64_NW BOM_ROCI BOM_POCI BOM_EYE BOM_POS_METHOD BOM_PRES_METHOD NADI_LAT NADI_LON NADI_CAT NADI_WIND NADI_PRES WELLINGTON_LAT WELLINGTON_LON WELLINGTON_WIND WELLINGTON_PRES DS824_LAT DS824_LON DS824_STAGE DS824_WIND DS824_PRES TD9636_LAT TD9636_LON TD9636_STAGE TD9636_WIND TD9636_PRES TD9635_LAT TD9635_LON TD9635_WIND TD9635_PRES TD9635_ROCI NEUMANN_LAT NEUMANN_LON NEUMANN_CLASS NEUMANN_WIND NEUMANN_PRES MLC_LAT MLC_LON MLC_CLASS MLC_WIND MLC_PRES USA_GUST BOM_GUST BOM_GUST_PER REUNION_GUST REUNION_GUST_PER USA_SEAHGT USA_SEARAD_NE USA_SEARAD_SE USA_SEARAD_SW USA_SEARAD_NW STORM_SPEED STORM_DIR
1945249N18090 1945 56 NI BB NOT_NAMED 1945-09-05 18:00:00 TS 17.8000 90.4000 main 367 367 O________O____ jtwc_io IO071945 17.8000 90.4000 -1 17.8000 90.4000 TC 3 316
1945249N18090 1945 56 NI BB NOT_NAMED 1945-09-05 21:00:00 TS 17.8900 90.3075 main 367 367 P________P____ IO071945 17.8900 90.3075 -1 17.8900 90.3075 TC 3 316
1945249N18090 1945 56 NI BB NOT_NAMED 1945-09-06 00:00:00 TS 18.0000 90.2000 main 367 359 O________O____ jtwc_io IO071945 18.0000 90.2000 -1 18.0000 90.2000 TC 25 3 318
1945249N18090 1945 56 NI BB NOT_NAMED 1945-09-06 03:00:00 TS 18.1378 90.0689 main 367 360 P________PO___ IO071945 18.1425 90.0650 -1 18.1425 90.0650 TC 25 18.1000 90.1000 1 4 316
1945249N18090 1945 56 NI BB NOT_NAMED 1945-09-06 06:00:00 TS 18.2931 89.9013 main 369 363 O________OP___ jtwc_io IO071945 18.3000 89.9000 -1 18.3000 89.9000 TC 25 18.2658 89.9064 1 5 311
1945249N18090 1945 56 NI BB NOT_NAMED 1945-09-06 09:00:00 TS 18.4405 89.7082 main 363 338 P________PP___ IO071945 18.4425 89.7075 -1 18.4425 89.7075 TC 25 18.4351 89.7102 1 5 309
1945249N18090 1945 56 NI BB NOT_NAMED 1945-09-06 12:00:00 TS 18.6040 89.5029 main 338 313 O________OP___ jtwc_io IO071945 18.6000 89.5000 -1 18.6000 89.5000 TC 25 18.6119 89.5088 1 5 313
1945249N18090 1945 56 NI BB NOT_NAMED 1945-09-06 15:00:00 TS 18.7950 89.3050 main 313 290 P________PO___ IO071945 18.7925 89.3074 -1 18.7925 89.3074 TC 25 18.8000 89.3000 1 6 316
1945249N18090 1945 56 NI BB NOT_NAMED 1945-09-06 18:00:00 TS 19.0003 89.0941 main 290 259 O________OP___ jtwc_io IO071945 19.0000 89.1000 -1 19.0000 89.1000 TC 25 19.0009 89.0822 1 6 314
1945249N18090 1945 56 NI BB NOT_NAMED 1945-09-06 21:00:00 TS 19.2025 88.8525 main 259 221 P________PP___ IO071945 19.2000 88.8500 -1 19.2000 88.8500 TC 25 19.2074 88.8575 1 6 311
1945249N18090 1945 56 NI BB NOT_NAMED 1945-09-07 00:00:00 TS 19.4034 88.6097 main 221 191 O________OP___ jtwc_io IO071945 19.4000 88.6000 -1 19.4000 88.6000 TC 25 19.4103 88.6291 1 6 314
1945249N18090 1945 56 NI BB NOT_NAMED 1945-09-07 03:00:00 TS 19.6099 88.4000 main 191 160 P________PO___ IO071945 19.6149 88.4000 -1 19.6149 88.4000 TC 25 19.6000 88.4000 1 5 314
1945249N18090 1945 56 NI BB NOT_NAMED 1945-09-07 06:00:00 TS 19.7840 88.1983 main 160 137 O________OP___ jtwc_io IO071945 19.8000 88.2000 -1 19.8000 88.2000 TC 25 19.7519 88.1948 1 5 305
1945249N18090 1945 56 NI BB NOT_NAMED 1945-09-07 09:00:00 TS 19.8973 87.9671 main 137 107 P________PP___ IO071945 19.9000 87.9573 -1 19.9000 87.9573 TC 25 19.8921 87.9867 1 5 297
1945249N18090 1945 56 NI BB NOT_NAMED 1945-09-07 12:00:00 TS 20.0121 87.7201 main 107 76 O________OP___ jtwc_io IO071945 20.0000 87.7000 -1 20.0000 87.7000 TC 25 20.0362 87.7603 1 5 302
1945249N18090 1945 56 NI BB NOT_NAMED 1945-09-07 15:00:00 TS 20.1849 87.4766 main 76 38 P________PO___ IO071945 20.1774 87.4649 -1 20.1774 87.4649 TC 25 20.2000 87.5000 1 6 309
1945249N18090 1945 56 NI BB NOT_NAMED 1945-09-07 18:00:00 TS 20.3983 87.2033 main 38 0 O________OP___ jtwc_io IO071945 20.4000 87.2000 -1 20.4000 87.2000 TC 25 20.3950 87.2100 1 7 309
1945249N18090 1945 56 NI BB NOT_NAMED 1945-09-07 21:00:00 TS 20.6323 86.8806 main 0 0 P________PP___ IO071945 20.6424 86.8799 -1 20.6424 86.8799 TC 25 20.6120 86.8819 1 8 307
1945249N18090 1945 56 NI BB NOT_NAMED 1945-09-08 00:00:00 TS 20.8827 86.5043 main 0 0 O________OP___ jtwc_io IO071945 20.9000 86.5000 -1 20.9000 86.5000 TC 25 20.8480 86.5128 1 9 304
1945249N18090 1945 56 NI BB NOT_NAMED 1945-09-08 03:00:00 TS 21.1333 86.0816 main 0 0 P________PO___ IO071945 21.1499 86.0724 -1 21.1499 86.0724 TC 25 21.1000 86.1000 1 10 301
1945249N18090 1945 56 NI BB NOT_NAMED 1945-09-08 06:00:00 TS 21.3841 85.6170 main 0 0 O________OP___ jtwc_io IO071945 21.4000 85.6000 -1 21.4000 85.6000 TC 25 21.3525 85.6509 1 10 299
1945249N18090 1945 56 NI BB NOT_NAMED 1945-09-08 09:00:00 TS 21.6349 85.1296 main 0 0 P________PP___ IO071945 21.6423 85.1147 -1 21.6423 85.1147 TC 25 21.6199 85.1593 1 11 299
1945249N18090 1945 56 NI BB NOT_NAMED 1945-09-08 12:00:00 TS 21.9008 84.6127 main 0 0 O________OP___ jtwc_io IO071945 21.9000 84.6000 -1 21.9000 84.6000 TC 25 21.9023 84.6381 1 11 299
1945249N18090 1945 56 NI BB NOT_NAMED 1945-09-08 15:00:00 TS 22.1899 84.0715 main 0 0 P________PO___ IO071945 22.1849 84.0573 -1 22.1849 84.0573 TC 25 22.2000 84.1000 1 12 301
1945249N18090 1945 56 NI BB NOT_NAMED 1945-09-08 18:00:00 TS 22.5145 83.5083 main 0 0 O________OP___ jtwc_io IO071945 22.5000 83.5000 -1 22.5000 83.5000 TC 25 22.5436 83.5249 1 13 303
1945249N18090 1945 56 NI BB NOT_NAMED 1945-09-08 21:00:00 TS 22.8703 82.9323 main 0 0 P________PP___ IO071945 22.8575 82.9276 -1 22.8575 82.9276 TC 25 22.8958 82.9417 1 12 304
1945249N18090 1945 56 NI BB NOT_NAMED 1945-09-09 00:00:00 TS 23.2083 82.3958 main 0 0 O________OP___ jtwc_io IO071945 23.2000 82.4000 -1 23.2000 82.4000 TC 25 23.2250 82.3875 1 11 304
1945249N18090 1945 56 NI BB NOT_NAMED 1945-09-09 03:00:00 TS 23.4915 81.9416 main 0 0 P________PO___ IO071945 23.4873 81.9623 -1 23.4873 81.9623 TC 25 23.5000 81.9000 1 9 303
1945249N18090 1945 56 NI BB NOT_NAMED 1945-09-09 06:00:00 TS 23.6911 81.5768 main 0 0 O________OP___ jtwc_io IO071945 23.7000 81.6000 -1 23.7000 81.6000 TC 25 23.6732 81.5305 1 7 297
1945249N18090 1945 56 NI BB NOT_NAMED 1945-09-09 09:00:00 TS 23.8077 81.2666 main 0 0 P________PP___ IO071945 23.8148 81.2847 -1 23.8148 81.2847 TC 25 23.7935 81.2304 1 6 291
1945249N18090 1945 56 NI BB NOT_NAMED 1945-09-09 12:00:00 TS 23.8974 80.9884 main 0 0 O________OP___ jtwc_io IO071945 23.9000 81.0000 -1 23.9000 81.0000 TC 25 23.8922 80.9652 1 6 293
1945249N18090 1945 56 NI BB NOT_NAMED 1945-09-09 15:00:00 TS 24.0283 80.7050 main 0 0 P________PO___ IO071945 24.0424 80.7075 -1 24.0424 80.7075 TC 25 24.0000 80.7000 1 6 298
1945249N18090 1945 56 NI BB NOT_NAMED 1945-09-09 18:00:00 TS 24.1883 80.3887 main 0 0 O________OP___ jtwc_io IO071945 24.2000 80.4000 -1 24.2000 80.4000 TC 25 24.1648 80.3661 1 7 297
1945249N18090 1945 56 NI BB NOT_NAMED 1945-09-09 21:00:00 TS 24.3426 80.0425 main 0 0 P________PP___ IO071945 24.3425 80.0499 -1 24.3425 80.0499 TC 25 24.3427 80.0278 1 7 297
1945249N18090 1945 56 NI BB NOT_NAMED 1945-09-10 00:00:00 TS 24.5081 79.7002 main 0 0 O________OP___ jtwc_io IO071945 24.5000 79.7000 -1 24.5000 79.7000 TC 25 24.5242 79.7005 1 7 301
1945249N18090 1945 56 NI BB NOT_NAMED 1945-09-10 03:00:00 TS 24.7050 79.3851 main 0 0 P________PO___ IO071945 24.7075 79.3776 -1 24.7075 79.3776 TC 25 24.7000 79.4000 1 7 305
1945249N18090 1945 56 NI BB NOT_NAMED 1945-09-10 06:00:00 TS 24.8843 79.1139 main 0 0 O________OP___ jtwc_io IO071945 24.9000 79.1000 -1 24.9000 79.1000 TC 25 24.8528 79.1418 1 5 303
1945249N18090 1945 56 NI BB NOT_NAMED 1945-09-10 09:00:00 TS 24.9998 78.8938 main 0 0 P________PP___ IO071945 24.9999 78.8848 -1 24.9999 78.8848 TC 25 24.9996 78.9120 1 4 302
1945249N18090 1945 56 NI BB NOT_NAMED 1945-09-10 12:00:00 TS 25.1155 78.7004 main 0 0 O________OP___ jtwc_io IO071945 25.1000 78.7000 -1 25.1000 78.7000 TC 25 25.1466 78.7012 1 5 310
1945249N18090 1945 56 NI BB NOT_NAMED 1945-09-10 15:00:00 TS 25.2950 78.5000 main 0 0 P________PO___ IO071945 25.2925 78.5000 -1 25.2925 78.5000 TC 25 25.3000 78.5000 1 5 316
1945249N18090 1945 56 NI BB NOT_NAMED 1945-09-10 18:00:00 TS 25.4865 78.2989 main 0 0 O________OP___ jtwc_io IO071945 25.5000 78.3000 -1 25.5000 78.3000 TC 25 25.4595 78.2966 1 5 314
1945249N18090 1945 56 NI BB NOT_NAMED 1945-09-10 21:00:00 TS 25.6424 78.0998 main 0 0 P________PP___ IO071945 25.6500 78.0999 -1 25.6500 78.0999 TC 25 25.6273 78.0995 1 5 311
1945249N18090 1945 56 NI AS NOT_NAMED 1945-09-11 00:00:00 TS 25.8021 77.9009 main 0 0 O________OP___ jtwc_io IO071945 25.8000 77.9000 -1 25.8000 77.9000 TC 25 25.8064 77.9028 1 5 314
1945249N18090 1945 56 NI AS NOT_NAMED 1945-09-11 03:00:00 TS 25.9900 77.7049 main 0 0 P________PO___ IO071945 25.9849 77.7074 -1 25.9849 77.7074 TC 25 26.0000 77.7000 1 5 318
1945249N18090 1945 56 NI AS NOT_NAMED 1945-09-11 06:00:00 TS 26.2035 77.4940 main 0 0 O________OP___ jtwc_io IO071945 26.2000 77.5000 -1 26.2000 77.5000 TC 25 26.2106 77.4821 1 6 318
1945249N18090 1945 56 NI AS NOT_NAMED 1945-09-11 09:00:00 TS 26.4450 77.2525 main 0 0 P________PP___ IO071945 26.4500 77.2501 -1 26.4500 77.2501 TC 25 26.4349 77.2574 1 7 318
1945249N18090 1945 56 NI AS NOT_NAMED 1945-09-11 12:00:00 TS 26.6889 77.0097 main 0 0 O________OP___ jtwc_io IO071945 26.7000 77.0000 -1 26.7000 77.0000 TC 25 26.6668 77.0289 1 6 318
1945249N18090 1945 56 NI AS NOT_NAMED 1945-09-11 15:00:00 TS 26.8999 76.7998 main 0 0 P________PO___ IO071945 26.8999 76.7998 -1 26.8999 76.7998 TC 25 26.9000 76.8000 1 6 318
1945249N18090 1945 56 NI AS NOT_NAMED 1945-09-11 18:00:00 TS 27.1118 76.5892 main 0 0 O________OP___ jtwc_io IO071945 27.1000 76.6000 -1 27.1000 76.6000 TC 25 27.1295 76.5731 1 6 318
1945249N18090 1945 56 NI AS NOT_NAMED 1945-09-11 21:00:00 TS 27.3452 76.3565 main 0 0 P________PP___ IO071945 27.3376 76.3629 -1 27.3376 76.3629 TC 25 27.3552 76.3481 1 6 318
1945249N18090 1945 56 NI AS NOT_NAMED 1945-09-12 00:00:00 TS 27.5892 76.1120 main 0 0 O________OP___ jtwc_io IO071945 27.6000 76.1000 -1 27.6000 76.1000 TC 25 27.5784 76.1240 1 6 318
1945249N18090 1945 56 NI AS NOT_NAMED 1945-09-12 03:00:00 NR 27.8000 75.9000 main 0 __________O___ IO071945 -1 TC 27.8000 75.9000 1 6 319

IBTrACS Databaseについて

本データベースは、米国NOAAが公開する1842年以降の世界の熱帯低気圧のベストトラックデータアーカイブInternational Best Track Archive for Climate Stewardship (IBTrACS)を、ウェブで閲覧しやすい形式に変換したものです。

最終更新日:2021-12-03